Time;durP1;ratioP1;P1;durP2;ratioP2;P2;SDS_P1;SDS_P2;PMS_P1;PMS_P2;Temp;Humidity;BMP_temperature;BMP_pressure;BME280_temperature;BME280_humidity;BME280_pressure;Samples;Min_cycle;Max_cycle;Signal;HPM_P1;HPM_P2
2022/03/01 00:00:21;;;;;;;26.20;16.57;;;5.50;56.60;;;8.09;46.08;103016.09;5054026;28;20211;-53
2022/03/01 00:02:50;;;;;;;24.53;16.87;;;5.50;57.20;;;8.09;46.18;103010.84;5053915;28;20229;-50
2022/03/01 00:05:17;;;;;;;26.87;18.33;;;5.50;56.50;;;8.08;46.23;103017.84;5054153;28;20690;-55
2022/03/01 00:07:44;;;;;;;27.83;17.10;;;5.40;56.40;;;8.06;46.31;103014.50;5053890;28;20265;-55
2022/03/01 00:10:12;;;;;;;24.03;17.10;;;5.40;56.60;;;8.05;46.17;103010.22;5053866;28;20664;-55
2022/03/01 00:12:39;;;;;;;30.33;17.90;;;5.40;56.50;;;8.09;46.22;103019.56;5051786;28;20190;-51
2022/03/01 00:15:08;;;;;;;23.83;16.03;;;5.40;56.50;;;8.07;45.99;103012.72;5053795;28;20247;-54
2022/03/01 00:17:35;;;;;;;23.83;16.33;;;5.40;56.50;;;8.06;45.69;103006.63;5054013;28;20649;-53
2022/03/01 00:20:05;;;;;;;23.83;16.63;;;5.40;56.50;;;8.04;46.25;103008.53;5053796;28;20190;-50
2022/03/01 00:22:33;;;;;;;24.37;16.87;;;5.40;56.60;;;8.04;46.14;103015.53;5053458;28;20586;-51
2022/03/01 00:25:01;;;;;;;28.30;17.40;;;5.40;56.70;;;8.01;45.79;103015.78;5053283;28;20221;-54
2022/03/01 00:27:28;;;;;;;24.63;16.80;;;5.40;56.70;;;7.99;46.25;103018.47;5052404;28;20199;-54
2022/03/01 00:29:56;;;;;;;25.93;16.50;;;5.30;56.60;;;7.99;46.20;103017.63;5033584;28;20543;-51
2022/03/01 00:32:23;;;;;;;23.57;17.13;;;5.40;56.70;;;7.96;46.19;103016.03;5033377;28;20647;-54
2022/03/01 00:34:51;;;;;;;23.63;15.57;;;5.40;56.80;;;7.97;46.56;103025.59;5033456;28;20230;-53
2022/03/01 00:37:19;;;;;;;24.80;16.97;;;5.30;56.60;;;7.98;46.22;103029.91;5033646;28;20194;-56
2022/03/01 00:39:47;;;;;;;26.00;16.47;;;5.30;56.60;;;7.95;46.11;103024.03;5033590;28;20192;-51
2022/03/01 00:42:14;;;;;;;27.10;17.53;;;5.30;56.60;;;7.92;46.28;103029.47;5033576;28;20219;-51
2022/03/01 00:44:42;;;;;;;24.17;15.60;;;5.30;56.60;;;7.91;45.86;103022.56;5033935;28;20606;-54
2022/03/01 00:47:09;;;;;;;25.10;15.70;;;5.20;56.40;;;7.89;46.11;103020.00;5033272;28;20192;-52
2022/03/01 00:49:36;;;;;;;25.37;16.50;;;5.20;56.60;;;7.95;46.43;103021.41;5033449;28;20191;-51
2022/03/01 00:52:06;;;;;;;24.50;16.97;;;5.30;56.80;;;8.00;46.00;103025.41;5036285;28;20651;-53
2022/03/01 00:54:34;;;;;;;26.67;16.67;;;5.30;56.80;;;7.98;45.87;103029.91;5052820;28;20215;-54
2022/03/01 00:57:02;;;;;;;23.07;16.50;;;5.30;56.60;;;7.97;45.69;103028.22;5053384;28;20194;-55
2022/03/01 00:59:29;;;;;;;25.83;16.30;;;5.20;56.50;;;8.00;45.66;103027.19;5036571;28;20539;-52
2022/03/01 01:01:56;;;;;;;25.03;16.57;;;5.30;56.60;;;8.02;45.74;103026.16;5055715;28;20620;-51
2022/03/01 01:04:24;;;;;;;22.40;15.83;;;5.20;56.50;;;8.05;46.07;103027.72;5056907;28;20612;-51
2022/03/01 01:06:51;;;;;;;22.03;14.33;;;5.30;56.60;;;8.08;45.78;103023.09;5057332;28;20210;-55
2022/03/01 01:09:18;;;;;;;23.50;15.00;;;5.30;56.70;;;8.13;45.88;103028.88;5057001;28;20210;-52
2022/03/01 01:11:47;;;;;;;26.80;16.53;;;5.30;56.80;;;8.17;45.68;103021.66;5055922;28;20558;-51
2022/03/01 01:14:15;;;;;;;24.00;15.70;;;5.40;56.60;;;8.17;45.99;103019.91;5056896;28;20210;-51
2022/03/01 01:16:43;;;;;;;24.17;14.93;;;5.40;56.70;;;8.22;45.47;103016.13;5051013;28;20196;-51
2022/03/01 01:19:12;;;;;;;22.80;14.90;;;5.30;56.50;;;8.20;45.28;103009.16;5036873;28;20246;-54
2022/03/01 01:24:25;;;;;;;22.53;15.87;;;5.40;56.20;;;8.10;45.70;103000.25;5036470;28;20292;-53
2022/03/01 01:26:54;;;;;;;27.10;16.93;;;5.30;56.30;;;8.12;45.81;102995.75;5036925;28;20192;-53
2022/03/01 01:29:21;;;;;;;25.93;17.53;;;5.40;56.80;;;8.12;45.73;102987.88;5036711;28;20198;-53
2022/03/01 01:31:48;;;;;;;28.73;17.03;;;5.40;56.60;;;8.06;45.84;102990.91;5035638;28;20211;-53
2022/03/01 01:34:16;;;;;;;24.57;15.53;;;5.40;56.40;;;8.07;45.79;102995.22;5037574;28;20221;-51
2022/03/01 01:36:44;;;;;;;24.97;16.03;;;5.40;56.40;;;8.02;45.94;102992.06;5036894;28;20196;-52
2022/03/01 01:39:11;;;;;;;23.03;15.33;;;5.30;56.40;;;7.99;45.54;102989.63;5036711;28;20199;-51
2022/03/01 01:41:39;;;;;;;24.23;15.87;;;5.30;56.40;;;7.98;45.94;102976.63;5036855;28;20698;-52
2022/03/01 01:44:08;;;;;;;26.17;16.83;;;5.30;57.30;;;7.90;45.77;102982.38;5036073;28;20222;-55
2022/03/01 01:46:35;;;;;;;26.40;17.50;;;5.30;56.50;;;7.82;45.78;102975.97;5036639;28;20649;-51
2022/03/01 01:49:03;;;;;;;22.37;15.93;;;5.20;56.40;;;7.71;46.61;102968.81;5037523;28;20187;-51
2022/03/01 01:51:31;;;;;;;26.17;15.80;;;5.20;56.40;;;7.66;46.08;102967.41;5036395;28;20186;-55
2022/03/01 01:53:58;;;;;;;24.40;16.63;;;5.10;57.10;;;7.59;46.76;102968.75;5054518;28;20542;-55
2022/03/01 01:56:25;;;;;;;23.70;16.47;;;5.10;56.50;;;7.53;46.87;102965.59;5056461;28;20563;-53
2022/03/01 01:58:53;;;;;;;25.57;16.87;;;5.00;56.70;;;7.49;47.00;102963.28;5056225;28;20205;-54
2022/03/01 02:01:24;;;;;;;23.13;15.33;;;5.00;56.80;;;7.48;46.66;102956.38;5056350;28;20194;-52
2022/03/01 02:03:52;;;;;;;27.30;16.60;;;4.90;56.90;;;7.51;46.99;102958.81;5055667;28;20218;-52
2022/03/01 02:06:19;;;;;;;23.70;15.13;;;4.90;57.00;;;7.54;46.63;102963.81;5041458;28;20210;-50
2022/03/01 02:08:46;;;;;;;24.47;16.90;;;4.90;57.10;;;7.51;46.81;102958.81;5035821;28;20664;-55
2022/03/01 02:11:14;;;;;;;25.67;15.63;;;4.90;57.30;;;7.46;46.50;102959.06;5035310;28;20199;-50
2022/03/01 02:13:41;;;;;;;28.57;17.70;;;4.90;57.20;;;7.39;47.38;102954.34;5034947;28;20207;-53
2022/03/01 02:16:09;;;;;;;27.73;17.57;;;4.80;57.30;;;7.35;47.26;102951.09;5035494;28;20519;-51
2022/03/01 02:18:38;;;;;;;24.27;16.17;;;4.80;57.50;;;7.34;47.39;102959.06;5035419;28;20192;-53
2022/03/01 02:21:07;;;;;;;26.07;16.57;;;4.80;57.60;;;7.31;46.85;102954.00;5035777;28;20207;-54
2022/03/01 02:23:36;;;;;;;29.50;18.07;;;4.80;57.60;;;7.27;47.07;102942.06;5050864;28;20302;-52
2022/03/01 02:26:04;;;;;;;27.50;16.57;;;4.70;57.60;;;7.21;47.38;102947.66;5055444;28;20205;-54
2022/03/01 02:28:31;;;;;;;25.37;16.60;;;4.70;57.90;;;7.20;47.63;102935.53;5055822;28;20526;-54
2022/03/01 02:30:59;;;;;;;22.70;15.43;;;4.70;57.90;;;7.22;47.49;102931.03;5055863;28;20209;-51
2022/03/01 02:33:26;;;;;;;26.27;16.90;;;4.70;58.10;;;7.30;47.02;102928.72;5055240;28;20185;-51
2022/03/01 02:35:53;;;;;;;26.20;16.37;;;4.70;58.00;;;7.35;47.63;102924.03;5055511;28;20208;-50
2022/03/01 02:38:22;;;;;;;25.40;16.33;;;4.70;58.00;;;7.40;47.19;102932.44;5050003;28;20198;-53
2022/03/01 02:40:49;;;;;;;25.50;17.30;;;4.70;58.00;;;7.44;47.33;102929.53;5035704;28;20245;-51
2022/03/01 02:43:17;;;;;;;22.27;15.27;;;4.70;57.90;;;7.48;47.26;102927.56;5033777;28;20782;-50
2022/03/01 02:45:44;;;;;;;25.87;17.10;;;4.80;58.00;;;7.48;47.08;102924.94;5035334;28;20674;-52
2022/03/01 02:48:11;;;;;;;28.57;16.33;;;4.80;57.70;;;7.48;46.54;102925.78;5035212;28;20191;-50
2022/03/01 02:50:39;;;;;;;24.60;15.23;;;4.80;57.60;;;7.47;46.89;102926.72;5034189;28;20202;-50
2022/03/01 02:53:07;;;;;;;22.60;15.30;;;4.80;57.50;;;7.47;46.49;102918.00;5046459;28;20303;-53
2022/03/01 02:55:39;;;;;;;22.27;14.67;;;4.80;57.70;;;7.51;46.79;102925.56;5053654;28;20539;-54
2022/03/01 02:58:06;;;;;;;24.70;15.70;;;4.80;57.60;;;7.53;46.71;102925.47;5054987;28;20239;-55
2022/03/01 03:00:33;;;;;;;24.13;15.87;;;4.80;57.40;;;7.49;46.90;102921.38;5055099;28;20222;-51
2022/03/01 03:03:01;;;;;;;21.37;15.00;;;4.80;57.30;;;7.49;46.55;102923.97;5054596;28;20264;-54
2022/03/01 03:05:28;;;;;;;22.60;15.50;;;4.80;57.20;;;7.50;46.44;102923.91;5055080;28;20214;-51
2022/03/01 03:07:56;;;;;;;22.43;14.93;;;4.80;57.20;;;7.52;47.03;102931.66;5054922;28;20677;-51
2022/03/01 03:10:23;;;;;;;22.37;15.70;;;4.80;57.40;;;7.50;46.25;102933.53;5054743;28;20202;-53
2022/03/01 03:12:52;;;;;;;23.80;15.90;;;4.80;57.20;;;7.41;46.98;102939.38;5035677;28;20250;-51
2022/03/01 03:15:19;;;;;;;24.30;15.30;;;4.70;57.00;;;7.28;46.92;102938.47;5034669;28;20212;-54
2022/03/01 03:17:46;;;;;;;26.27;14.40;;;4.70;57.00;;;7.21;46.66;102938.03;5034586;28;20594;-51
2022/03/01 03:20:13;;;;;;;22.07;14.10;;;4.70;57.00;;;7.20;47.44;102932.91;5034743;28;20187;-52
2022/03/01 03:22:41;;;;;;;18.43;13.23;;;4.60;57.00;;;7.23;46.69;102930.06;5041740;28;20206;-49
2022/03/01 03:25:09;;;;;;;24.10;15.97;;;4.60;57.10;;;7.29;46.73;102929.69;5054267;28;20240;-51
2022/03/01 03:27:36;;;;;;;23.63;15.00;;;4.60;57.30;;;7.31;46.44;102930.44;5052912;28;20187;-50
2022/03/01 03:30:07;;;;;;;20.97;13.47;;;4.60;57.10;;;7.29;46.91;102942.78;5054392;28;20190;-51
2022/03/01 03:32:35;;;;;;;25.73;15.50;;;4.60;57.10;;;7.26;46.92;102932.50;5054099;28;20194;-52
2022/03/01 03:35:04;;;;;;;22.43;14.80;;;4.60;57.00;;;7.26;46.40;102933.34;5054121;28;20220;-53
2022/03/01 03:37:31;;;;;;;24.07;15.07;;;4.60;57.10;;;7.28;46.70;102930.63;5054172;28;20190;-50
2022/03/01 03:39:58;;;;;;;19.13;13.57;;;4.60;57.20;;;7.30;46.90;102931.34;5054286;28;20192;-53
2022/03/01 03:42:26;;;;;;;22.30;15.30;;;4.60;57.10;;;7.30;45.97;102920.88;5054023;28;20198;-53
2022/03/01 03:44:53;;;;;;;21.07;14.40;;;4.60;57.00;;;7.31;46.38;102917.34;5039619;28;20223;-52
2022/03/01 03:47:22;;;;;;;22.93;14.07;;;4.60;57.20;;;7.33;46.35;102921.53;5033880;28;20191;-49
2022/03/01 03:49:50;;;;;;;25.63;14.20;;;4.60;57.10;;;7.31;46.28;102925.19;5034138;28;20220;-53
2022/03/01 03:52:18;;;;;;;21.07;14.00;;;4.60;57.10;;;7.27;46.77;102927.16;5038786;28;20194;-52
2022/03/01 03:54:45;;;;;;;21.23;13.40;;;4.60;57.10;;;7.24;46.14;102921.28;5053470;28;20206;-49
2022/03/01 03:57:12;;;;;;;19.47;13.30;;;4.60;57.00;;;7.22;46.14;102923.16;5053741;28;20197;-54
2022/03/01 03:59:40;;;;;;;21.23;14.30;;;4.50;56.90;;;7.16;46.15;102921.78;5052235;28;20198;-50
2022/03/01 04:02:07;;;;;;;22.97;13.73;;;4.50;56.90;;;7.09;46.21;102923.09;5053681;28;20186;-50
2022/03/01 04:04:37;;;;;;;20.23;13.17;;;4.50;57.20;;;7.05;46.34;102924.25;5053102;28;20243;-49
2022/03/01 04:07:04;;;;;;;19.90;12.93;;;4.50;57.10;;;7.03;46.87;102920.91;5054053;28;20182;-50
2022/03/01 04:09:32;;;;;;;18.83;12.77;;;4.40;57.00;;;7.01;46.57;102916.69;5054067;28;20202;-50
2022/03/01 04:11:59;;;;;;;21.27;13.33;;;4.40;57.00;;;6.99;46.34;102906.31;5053316;28;20312;-49
2022/03/01 04:14:28;;;;;;;23.97;14.73;;;4.40;57.20;;;6.96;46.66;102905.66;5054582;28;20308;-54
2022/03/01 04:16:55;;;;;;;18.60;13.13;;;4.30;57.40;;;6.94;46.74;102907.56;5053519;28;20265;-51
2022/03/01 04:19:23;;;;;;;19.50;13.07;;;4.30;57.30;;;6.98;47.24;102909.03;5055795;28;20205;-51
2022/03/01 04:21:51;;;;;;;18.33;13.03;;;4.30;57.40;;;7.00;46.91;102901.91;5055229;28;20206;-50
2022/03/01 04:24:19;;;;;;;18.47;12.13;;;4.30;57.50;;;7.00;46.86;102909.75;5054215;28;20298;-50
2022/03/01 04:26:46;;;;;;;21.97;14.13;;;4.30;57.30;;;6.96;47.32;102910.91;5053679;28;20198;-53
2022/03/01 04:29:13;;;;;;;18.20;12.27;;;4.30;57.30;;;6.96;46.28;102900.44;5053037;28;20647;-54
2022/03/01 04:31:41;;;;;;;21.50;14.03;;;4.30;57.30;;;6.93;46.74;102900.63;5052560;28;20636;-53
2022/03/01 04:34:09;;;;;;;17.63;12.47;;;4.20;57.30;;;6.88;46.43;102897.47;5052771;28;20265;-50
2022/03/01 04:36:38;;;;;;;21.03;13.53;;;4.20;57.40;;;6.91;46.94;102902.50;5053276;28;20193;-53
2022/03/01 04:39:08;;;;;;;22.10;13.33;;;4.20;57.50;;;6.91;47.33;102905.13;5052999;28;20600;-50
2022/03/01 04:41:35;;;;;;;19.40;13.20;;;4.20;57.30;;;6.88;47.04;102910.53;5053109;28;20201;-51
2022/03/01 04:44:05;;;;;;;18.53;11.80;;;4.20;57.10;;;6.82;46.56;102909.97;5052757;28;20710;-49
2022/03/01 04:46:33;;;;;;;18.83;12.73;;;4.20;57.20;;;6.80;46.26;102916.25;5053405;28;20213;-51
2022/03/01 04:49:02;;;;;;;17.97;11.67;;;4.20;57.20;;;6.74;47.57;102907.03;5051305;28;20201;-50
2022/03/01 04:51:29;;;;;;;19.17;12.00;;;4.20;57.30;;;6.72;46.86;102908.91;5052625;28;20187;-51
2022/03/01 04:53:56;;;;;;;22.33;12.50;;;4.10;57.00;;;6.70;46.72;102897.66;5052451;28;20219;-50
2022/03/01 04:56:26;;;;;;;15.87;11.33;;;4.10;57.30;;;6.69;47.06;102903.00;5052920;28;20270;-50
2022/03/01 04:58:53;;;;;;;19.40;12.50;;;4.10;57.20;;;6.65;46.95;102897.16;5051881;28;20252;-51
2022/03/01 05:01:20;;;;;;;20.90;11.67;;;4.00;57.30;;;6.59;47.64;102907.13;5052875;28;20195;-55
2022/03/01 05:03:48;;;;;;;18.67;12.30;;;4.00;57.30;;;6.52;47.25;102901.44;5052404;28;20220;-51
2022/03/01 05:06:15;;;;;;;19.70;12.30;;;4.00;57.20;;;6.53;47.72;102895.28;5051471;28;20226;-50
2022/03/01 05:08:43;;;;;;;20.23;12.33;;;4.00;57.50;;;6.51;47.00;102894.50;5052652;28;20658;-53
2022/03/01 05:11:10;;;;;;;20.13;12.57;;;3.90;57.40;;;6.48;47.88;102899.97;5052752;28;20194;-50
2022/03/01 05:13:38;;;;;;;20.77;12.93;;;3.90;57.50;;;6.49;47.40;102896.41;5052416;28;20670;-53
2022/03/01 05:16:06;;;;;;;22.30;13.23;;;3.90;57.60;;;6.44;48.23;102897.63;5043068;28;20193;-53
2022/03/01 05:18:34;;;;;;;18.37;11.57;;;3.90;57.80;;;6.41;46.94;102898.66;5032486;28;20208;-50
2022/03/01 05:21:02;;;;;;;17.27;12.40;;;3.80;57.60;;;6.38;47.92;102898.84;5032325;28;20512;-50
2022/03/01 05:23:29;;;;;;;17.03;11.73;;;3.80;57.70;;;6.36;47.92;102899.88;5046495;28;20219;-52
2022/03/01 05:25:56;;;;;;;19.50;12.20;;;3.80;57.80;;;6.35;47.34;102901.63;5037392;28;20201;-50
2022/03/01 05:28:24;;;;;;;16.80;11.37;;;3.80;58.60;;;6.34;47.10;102913.03;5032744;28;20195;-50
2022/03/01 05:30:52;;;;;;;22.13;11.63;;;3.70;57.90;;;6.34;47.75;102907.81;5032357;28;20191;-50
2022/03/01 05:33:19;;;;;;;18.40;12.03;;;3.70;57.80;;;6.32;47.51;102908.84;5031863;28;20571;-50
2022/03/01 05:35:47;;;;;;;21.70;12.17;;;3.70;58.00;;;6.31;47.34;102908.00;5032288;28;20192;-53
2022/03/01 05:38:15;;;;;;;18.47;11.70;;;3.70;58.10;;;6.29;47.77;102903.78;5035165;28;20194;-51
2022/03/01 05:40:42;;;;;;;20.43;12.23;;;3.70;58.20;;;6.26;48.72;102904.81;5052307;28;20678;-49
2022/03/01 05:43:09;;;;;;;20.33;12.00;;;3.70;58.30;;;6.25;47.55;102903.16;5050859;28;20191;-51
2022/03/01 05:45:37;;;;;;;17.97;11.23;;;3.60;58.10;;;6.22;47.27;102908.56;5053540;28;20217;-52
2022/03/01 05:48:06;;;;;;;16.40;10.70;;;3.60;58.10;;;6.19;47.86;102897.44;5056154;28;20190;-53
2022/03/01 05:50:33;;;;;;;18.13;10.97;;;3.60;58.20;;;6.21;48.61;102903.41;5056472;28;20223;-52
2022/03/01 05:53:01;;;;;;;16.53;11.27;;;3.60;58.30;;;6.23;47.50;102905.00;5056449;28;20203;-49
2022/03/01 05:55:28;;;;;;;17.47;11.37;;;3.60;58.40;;;6.28;48.14;102896.88;5044465;28;20307;-54
2022/03/01 05:57:57;;;;;;;18.17;11.73;;;3.60;58.30;;;6.31;48.21;102902.75;5037125;28;20204;-52
2022/03/01 06:00:24;;;;;;;21.87;12.70;;;3.60;58.50;;;6.36;47.80;102900.72;5036322;28;20211;-53
2022/03/01 06:02:52;;;;;;;20.93;11.87;;;3.60;58.70;;;6.39;47.26;102900.53;5037322;28;20198;-52
2022/03/01 06:05:27;;;;;;;18.87;11.00;;;3.60;58.60;;;6.43;47.69;102899.41;5038268;28;20285;-53
2022/03/01 06:07:58;;;;;;;20.23;12.73;;;3.70;58.50;;;6.45;47.65;102892.28;5037822;28;20282;-53
2022/03/01 06:10:26;;;;;;;17.97;12.00;;;3.70;58.50;;;6.45;47.99;102905.38;5037495;28;20279;-52
2022/03/01 06:12:54;;;;;;;17.23;10.30;;;3.70;58.60;;;6.47;47.52;102890.41;5036151;28;20352;-56
2022/03/01 06:15:21;;;;;;;16.33;11.03;;;3.70;58.50;;;6.52;47.61;102892.75;5037609;28;20215;-54
2022/03/01 06:17:49;;;;;;;18.13;11.83;;;3.70;58.50;;;6.52;47.77;102904.06;5039028;28;20186;-54
2022/03/01 06:20:17;;;;;;;18.50;11.77;;;3.80;59.10;;;6.52;47.26;102904.06;5039263;28;20192;-52
2022/03/01 06:22:46;;;;;;;19.57;12.10;;;3.80;58.30;;;6.53;48.00;102897.91;5048577;28;20280;-54
2022/03/01 06:25:18;;;;;;;18.30;11.70;;;3.70;58.40;;;6.49;47.68;102901.63;5062151;28;20253;-50
2022/03/01 06:27:45;;;;;;;17.73;11.60;;;3.80;58.30;;;6.48;47.47;102905.19;5065551;28;20198;-53
2022/03/01 06:30:16;;;;;;;15.83;10.67;;;3.80;59.00;;;6.54;47.99;102902.19;5061357;28;20199;-53
2022/03/01 06:32:43;;;;;;;16.30;11.07;;;3.80;58.40;;;6.61;47.61;102907.88;5059132;28;20191;-52
2022/03/01 06:35:10;;;;;;;19.90;12.13;;;3.80;58.40;;;6.68;46.96;102907.41;5054739;28;20274;-52
2022/03/01 06:37:46;;;;;;;19.27;11.07;;;3.90;58.30;;;6.70;47.74;102905.53;5056024;28;20192;-56
2022/03/01 06:40:14;;;;;;;16.77;11.90;;;3.90;58.20;;;6.72;46.70;102908.91;5055938;28;20699;-51
2022/03/01 06:42:42;;;;;;;15.83;10.53;;;3.90;58.10;;;6.77;47.24;102906.81;5053285;28;20201;-58
2022/03/01 06:45:10;;;;;;;18.40;12.37;;;4.00;58.00;;;6.79;46.76;102912.81;5034549;28;20242;-51
2022/03/01 06:47:38;;;;;;;21.83;12.47;;;4.00;57.80;;;6.76;46.74;102909.53;5035700;28;20196;-52
2022/03/01 06:50:08;;;;;;;17.47;11.30;;;4.00;57.70;;;6.72;46.52;102914.13;5035282;28;20528;-52
2022/03/01 06:52:37;;;;;;;20.50;11.93;;;4.00;57.50;;;6.68;47.43;102915.25;5040987;28;20199;-53
2022/03/01 06:55:09;;;;;;;15.27;11.07;;;4.00;57.40;;;6.68;47.40;102923.09;5054231;28;20699;-53
2022/03/01 06:57:39;;;;;;;16.13;11.00;;;4.00;57.50;;;6.73;46.63;102918.41;5054104;28;20186;-52
2022/03/01 07:00:08;;;;;;;16.80;10.93;;;4.10;57.60;;;6.83;47.30;102916.06;5045205;28;20233;-50
2022/03/01 07:02:38;;;;;;;18.40;10.70;;;4.10;57.60;;;6.86;46.53;102909.81;5033448;28;20214;-52
2022/03/01 07:05:09;;;;;;;13.77;9.80;;;4.10;57.60;;;6.93;46.97;102919.78;5039323;28;20226;-56
2022/03/01 07:07:38;;;;;;;16.43;11.00;;;4.10;57.60;;;7.05;47.12;102920.78;5055329;28;20308;-55
2022/03/01 07:10:13;;;;;;;16.07;10.67;;;4.20;57.80;;;7.16;46.69;102915.69;5055419;28;20195;-54
2022/03/01 07:12:42;;;;;;;18.03;11.77;;;4.30;57.70;;;7.31;46.27;102917.34;5054249;28;20194;-57
2022/03/01 07:15:11;;;;;;;15.77;10.77;;;4.40;57.60;;;7.50;46.45;102920.44;5048007;28;20547;-52
2022/03/01 07:17:43;;;;;;;16.73;11.10;;;4.60;57.60;;;7.71;45.84;102915.53;5052540;28;20626;-54
2022/03/01 07:20:12;;;;;;;15.97;10.97;;;4.70;57.90;;;7.87;45.47;102917.03;5053738;28;20197;-53
2022/03/01 07:22:44;;;;;;;15.57;10.57;;;4.90;57.00;;;8.04;45.56;102919.38;5053587;28;20210;-52
2022/03/01 07:25:14;;;;;;;18.33;10.67;;;5.10;56.90;;;8.31;45.03;102910.59;5054057;28;20386;-50
2022/03/01 07:27:49;;;;;;;15.47;10.93;;;5.30;56.80;;;8.58;44.13;102906.06;5053401;28;20596;-52
2022/03/01 07:30:18;;;;;;;14.43;10.43;;;5.50;55.90;;;8.87;44.24;102914.50;5053284;28;20284;-52
2022/03/01 07:32:46;;;;;;;20.10;11.90;;;5.80;55.80;;;8.97;42.96;102921.56;5051238;28;20245;-50
2022/03/01 07:35:14;;;;;;;14.53;10.30;;;6.00;54.40;;;9.09;43.11;102909.34;5053663;28;20233;-50
2022/03/01 07:37:42;;;;;;;19.67;12.17;;;6.20;54.30;;;9.25;42.66;102894.97;5054121;28;20304;-51
2022/03/01 07:40:21;;;;;;;16.30;10.27;;;6.30;53.70;;;9.44;42.27;102905.81;5053472;28;20670;-51
2022/03/01 07:42:49;;;;;;;14.73;10.10;;;6.50;53.50;;;9.59;42.14;102908.25;5053950;28;20191;-53
2022/03/01 07:45:18;;;;;;;16.33;10.97;;;6.60;53.00;;;9.73;41.54;102914.16;5052241;28;20227;-53
2022/03/01 07:47:45;;;;;;;16.37;11.73;;;6.80;52.30;;;9.89;40.66;102911.22;5053338;28;20217;-54
2022/03/01 07:50:13;;;;;;;17.60;10.63;;;7.00;51.70;;;9.95;40.79;102903.69;5040305;28;20725;-51
2022/03/01 07:52:41;;;;;;;18.60;11.37;;;7.20;51.40;;;9.99;40.99;102906.91;5040358;28;20204;-51
2022/03/01 07:55:10;;;;;;;17.33;11.77;;;7.30;50.70;;;10.09;40.65;102907.91;5052788;28;20217;-49
2022/03/01 07:57:39;;;;;;;17.67;11.97;;;7.40;50.70;;;10.19;40.23;102906.28;5068194;28;20664;-50
2022/03/01 08:00:09;;;;;;;19.50;11.80;;;7.50;50.60;;;10.26;40.25;102907.47;5053412;28;20631;-53
2022/03/01 08:02:40;;;;;;;15.63;10.77;;;7.50;50.40;;;10.27;40.36;102906.50;5054080;28;20268;-53
2022/03/01 08:05:10;;;;;;;16.73;11.63;;;7.60;50.00;;;10.27;39.98;102914.41;5052280;28;20761;-53
2022/03/01 08:07:57;;;;;;;14.37;10.63;;;7.60;49.90;;;10.40;40.22;102911.66;5033621;28;20252;-53
2022/03/01 08:10:26;;;;;;;18.83;13.20;;;7.70;50.00;;;10.51;40.25;102914.28;5031852;28;20324;-51
2022/03/01 08:12:55;;;;;;;17.80;11.77;;;7.70;49.70;;;10.72;39.50;102905.53;5031894;28;20197;-54
2022/03/01 08:15:26;;;;;;;14.47;10.53;;;7.80;50.00;;;10.90;39.63;102908.50;5039775;28;20313;-50
2022/03/01 08:17:56;;;;;;;16.73;11.27;;;8.00;49.90;;;11.19;39.72;102906.16;5052365;28;20193;-51
2022/03/01 08:20:26;;;;;;;18.40;12.07;;;8.20;49.90;;;11.61;39.06;102912.31;5037636;28;20221;-55
2022/03/01 08:22:56;;;;;;;15.67;11.03;;;8.40;49.50;;;11.95;38.01;102912.06;5037690;28;20224;-52
2022/03/01 08:25:24;;;;;;;16.00;11.50;;;8.70;49.10;;;12.32;38.03;102903.59;5038608;28;20262;-52
2022/03/01 08:27:51;;;;;;;16.83;11.73;;;9.00;48.30;;;12.68;37.26;102905.69;5038114;28;20692;-51
2022/03/01 08:30:20;;;;;;;16.77;11.93;;;9.30;48.00;;;13.15;36.69;102910.25;5038291;28;20201;-53
2022/03/01 08:32:49;;;;;;;16.17;12.13;;;9.70;47.50;;;13.46;35.83;102913.63;5038610;28;20254;-50
2022/03/01 08:35:17;;;;;;;17.97;12.50;;;10.00;45.20;;;13.64;35.15;102906.66;5038155;28;20282;-53
2022/03/01 08:37:44;;;;;;;17.67;12.67;;;10.40;44.40;;;13.87;34.87;102912.47;5036156;28;20235;-55
2022/03/01 08:40:13;;;;;;;14.73;11.20;;;10.70;43.70;;;14.16;34.49;102913.25;5037317;28;20221;-53
2022/03/01 08:42:41;;;;;;;17.07;11.50;;;10.90;43.30;;;14.40;33.97;102908.31;5033626;28;20210;-55
2022/03/01 08:45:10;;;;;;;13.23;11.10;;;11.20;42.70;;;14.56;33.73;102905.84;5035921;28;21002;-52
2022/03/01 08:47:41;;;;;;;16.50;11.27;;;11.40;42.10;;;14.79;33.65;102912.44;5036600;28;20206;-54
2022/03/01 08:50:11;;;;;;;15.80;12.30;;;11.60;42.00;;;14.90;32.34;102906.91;5036394;28;20205;-57
2022/03/01 08:53:00;;;;;;;16.20;11.83;;;11.70;40.10;;;14.91;32.49;102905.09;5034782;28;20273;-52
2022/03/01 08:55:28;;;;;;;15.97;11.73;;;11.80;40.40;;;15.09;32.40;102913.09;5033718;28;20341;-55
2022/03/01 08:58:00;;;;;;;15.20;11.80;;;12.00;39.90;;;15.44;32.59;102913.09;5036699;28;20206;-52
2022/03/01 09:00:28;;;;;;;15.10;12.27;;;12.20;40.60;;;15.87;31.83;102909.63;5036782;28;20198;-53
2022/03/01 09:02:58;;;;;;;16.00;12.73;;;12.40;39.80;;;16.30;30.54;102906.06;5033832;28;20255;-54
2022/03/01 09:05:26;;;;;;;14.87;11.93;;;12.70;38.80;;;16.60;29.52;102913.56;5036277;28;20292;-55
2022/03/01 09:07:54;;;;;;;16.10;12.37;;;13.10;37.60;;;16.87;29.45;102921.31;5032021;28;20288;-55
2022/03/01 09:10:23;;;;;;;14.80;12.17;;;13.40;37.00;;;17.17;29.72;102918.03;5034857;28;20788;-57
2022/03/01 09:12:52;;;;;;;17.97;12.73;;;13.70;37.00;;;17.44;29.39;102912.41;5030256;28;20300;-54
2022/03/01 09:15:22;;;;;;;15.63;12.30;;;14.00;36.40;;;17.78;28.93;102912.25;5034902;28;20232;-57
2022/03/01 09:17:50;;;;;;;13.47;11.80;;;14.30;35.80;;;18.14;28.51;102907.34;5035014;28;20201;-58
2022/03/01 09:20:20;;;;;;;16.23;12.97;;;14.60;35.80;;;18.65;27.96;102898.88;5035645;28;20229;-54
2022/03/01 09:22:48;;;;;;;13.53;11.40;;;14.90;34.60;;;19.13;27.35;102902.25;5038368;28;20638;-55
2022/03/01 09:25:16;;;;;;;15.57;12.23;;;15.30;34.90;;;19.47;27.12;102897.34;5040521;28;20678;-57
2022/03/01 09:27:43;;;;;;;17.63;13.43;;;15.60;34.10;;;19.87;26.73;102907.66;5038190;28;20384;-56
2022/03/01 09:30:12;;;;;;;13.53;11.93;;;15.90;34.20;;;20.40;26.18;102901.25;5043188;28;20334;-55
2022/03/01 09:32:40;;;;;;;16.83;14.13;;;16.30;34.00;;;20.81;25.92;102898.88;5042317;28;20267;-55
2022/03/01 09:35:09;;;;;;;13.00;11.57;;;16.70;32.20;;;21.41;24.98;102903.88;5039455;28;20221;-56
2022/03/01 09:37:38;;;;;;;16.57;13.83;;;17.00;32.40;;;22.15;23.89;102905.91;5042812;28;20280;-54
2022/03/01 09:40:08;;;;;;;15.37;13.10;;;17.40;30.30;;;22.56;23.92;102903.19;5038476;28;20844;-57
2022/03/01 09:42:36;;;;;;;23.37;19.73;;;17.90;30.90;;;23.00;23.35;102899.22;5042395;28;20696;-55
2022/03/01 09:45:04;;;;;;;20.83;16.07;;;18.30;30.40;;;23.59;22.64;102894.75;5038172;28;20317;-55
2022/03/01 09:47:34;;;;;;;16.63;13.80;;;18.70;29.70;;;24.18;21.68;102908.16;5036316;28;20217;-54
2022/03/01 09:50:02;;;;;;;15.50;12.57;;;19.20;29.40;;;24.58;21.34;102906.97;5038912;28;20190;-55
2022/03/01 09:52:29;;;;;;;17.73;12.27;;;19.70;28.90;;;24.81;20.82;102912.72;5037726;28;20202;-56
2022/03/01 09:54:59;;;;;;;18.57;16.57;;;20.00;27.80;;;25.00;21.19;102899.34;5037414;28;21367;-56
2022/03/01 09:57:27;;;;;;;14.67;13.07;;;20.40;27.50;;;24.94;20.66;102901.00;5037123;28;20290;-56
2022/03/01 09:59:55;;;;;;;15.33;13.73;;;20.50;27.10;;;24.87;20.56;102894.84;5036441;28;20586;-57
2022/03/01 10:02:33;;;;;;;13.70;12.07;;;20.60;26.60;;;25.13;20.64;102891.97;5033534;28;20208;-55
2022/03/01 10:05:02;;;;;;;16.77;14.53;;;20.70;27.10;;;25.47;19.70;102896.09;5035203;28;20279;-54
2022/03/01 10:07:31;;;;;;;14.13;12.73;;;20.80;25.90;;;25.50;19.66;102901.91;5038104;28;20753;-54
2022/03/01 10:10:10;;;;;;;15.50;12.20;;;20.90;26.30;;;25.53;19.74;102896.03;5039568;28;20666;-56
2022/03/01 10:12:39;;;;;;;15.43;13.80;;;21.00;26.00;;;26.11;19.77;102895.72;5039066;28;20247;-58
2022/03/01 10:15:10;;;;;;;16.07;14.37;;;21.30;26.40;;;26.51;19.34;102896.88;5039249;28;20965;-55
2022/03/01 10:17:39;;;;;;;23.03;19.37;;;21.50;25.80;;;26.44;18.67;102900.72;5037869;28;20277;-55